createdAt,value
2022-09-14T00:00:11.456Z,5.03
2022-09-14T00:02:37.992Z,6.07
2022-09-14T00:05:04.640Z,5.60
2022-09-14T00:07:31.046Z,5.45
2022-09-14T00:09:57.412Z,5.10
2022-09-14T00:12:25.039Z,5.15
2022-09-14T00:14:51.392Z,5.15
2022-09-14T00:17:18.057Z,5.40
2022-09-14T00:19:44.434Z,5.20
2022-09-14T00:22:10.828Z,5.05
2022-09-14T00:24:37.202Z,4.85
2022-09-14T00:27:03.765Z,5.40
2022-09-14T00:29:30.483Z,4.97
2022-09-14T00:31:57.270Z,5.40
2022-09-14T00:34:23.706Z,5.18
2022-09-14T00:36:51.079Z,5.20
2022-09-14T00:39:18.334Z,5.32
2022-09-14T00:41:45.921Z,5.68
2022-09-14T00:44:12.658Z,5.28
2022-09-14T00:46:47.095Z,5.07
2022-09-14T00:49:24.240Z,5.07
2022-09-14T00:51:56.556Z,5.50
2022-09-14T00:54:22.965Z,5.93
2022-09-14T00:56:49.730Z,5.45
2022-09-14T00:59:27.358Z,5.30
2022-09-14T01:01:54.114Z,5.45
2022-09-14T01:04:20.527Z,5.38
2022-09-14T01:06:52.623Z,5.40
2022-09-14T01:09:22.109Z,5.40
2022-09-14T01:11:51.916Z,5.45
2022-09-14T01:14:21.336Z,5.70
2022-09-14T01:16:55.557Z,5.43
2022-09-14T01:19:34.191Z,5.60
2022-09-14T01:22:06.161Z,5.45
2022-09-14T01:24:47.787Z,5.57
2022-09-14T01:27:19.815Z,5.72
2022-09-14T01:29:58.046Z,6.30
2022-09-14T01:32:24.388Z,5.35
2022-09-14T01:34:54.257Z,5.95
2022-09-14T01:37:24.272Z,5.60
2022-09-14T01:39:54.129Z,6.18
2022-09-14T01:42:21.713Z,5.80
2022-09-14T01:44:49.521Z,5.70
2022-09-14T01:47:17.769Z,5.95
2022-09-14T01:49:46.849Z,5.85
2022-09-14T01:52:17.058Z,5.90
2022-09-14T01:54:43.395Z,5.60
2022-09-14T01:57:21.551Z,5.32
2022-09-14T01:59:49.458Z,5.82
2022-09-14T02:02:22.558Z,5.97
2022-09-14T02:04:49.036Z,6.53
2022-09-14T02:07:16.107Z,6.30
2022-09-14T02:09:42.795Z,6.35
2022-09-14T02:12:09.279Z,6.30
2022-09-14T02:14:35.786Z,6.35
2022-09-14T02:17:02.380Z,6.47
2022-09-14T02:19:31.226Z,6.28
2022-09-14T02:21:57.543Z,5.53
2022-09-14T02:24:23.902Z,5.60
2022-09-14T02:26:51.293Z,5.85
2022-09-14T02:29:17.742Z,5.80
2022-09-14T02:31:55.063Z,5.45
2022-09-14T02:34:34.287Z,6.00
2022-09-14T02:37:15.750Z,6.35
2022-09-14T02:39:54.359Z,6.13
2022-09-14T02:42:24.354Z,6.57
2022-09-14T02:45:14.473Z,6.80
2022-09-14T02:47:43.594Z,6.80
2022-09-14T02:50:16.031Z,6.82
2022-09-14T02:53:01.549Z,6.55
2022-09-14T02:55:31.462Z,7.00
2022-09-14T02:58:03.710Z,6.82
2022-09-14T03:00:31.137Z,7.30
2022-09-14T03:02:58.021Z,8.35
2022-09-14T03:05:24.579Z,7.85
2022-09-14T03:07:50.917Z,7.57
2022-09-14T03:10:17.313Z,8.75
2022-09-14T03:12:43.763Z,8.63
2022-09-14T03:15:10.581Z,7.22
2022-09-14T03:17:37.037Z,7.05
2022-09-14T03:20:03.988Z,7.65
2022-09-14T03:22:30.305Z,8.43
2022-09-14T03:24:56.683Z,8.95
2022-09-14T03:27:23.061Z,8.20
2022-09-14T03:29:49.369Z,8.82
2022-09-14T03:32:15.762Z,8.63
2022-09-14T03:34:42.138Z,9.23
2022-09-14T03:37:08.499Z,9.23
2022-09-14T03:39:34.805Z,9.63
2022-09-14T03:42:01.158Z,9.88
2022-09-14T03:44:27.646Z,10.35
2022-09-14T03:46:53.993Z,9.13
2022-09-14T03:49:22.223Z,9.23
2022-09-14T03:51:48.741Z,9.57
2022-09-14T03:54:15.051Z,9.02
2022-09-14T03:56:41.558Z,9.93
2022-09-14T03:59:10.672Z,10.18
2022-09-14T04:01:38.062Z,8.70
2022-09-14T04:04:04.533Z,7.85
2022-09-14T04:06:32.684Z,8.73
2022-09-14T04:08:59.266Z,9.38
2022-09-14T04:11:26.012Z,7.72
2022-09-14T04:13:52.749Z,7.78
2022-09-14T04:16:20.810Z,8.52
2022-09-14T04:18:47.753Z,7.70
2022-09-14T04:21:14.995Z,8.55
2022-09-14T04:24:10.262Z,8.30
2022-09-14T04:26:28.897Z,8.15
2022-09-14T04:28:55.625Z,8.95
2022-09-14T04:31:22.399Z,9.80
2022-09-14T04:33:50.867Z,9.68
2022-09-14T04:36:18.528Z,8.48
2022-09-14T04:38:44.978Z,8.98
2022-09-14T04:41:12.663Z,8.77
2022-09-14T04:43:39.191Z,8.85
2022-09-14T04:46:07.279Z,9.48
2022-09-14T04:48:35.150Z,8.50
2022-09-14T04:51:19.086Z,9.23
2022-09-14T04:53:46.897Z,8.82
2022-09-14T04:56:14.033Z,8.80
2022-09-14T04:58:46.250Z,8.70
2022-09-14T05:01:17.586Z,8.60
2022-09-14T05:03:44.213Z,8.90
2022-09-14T05:06:15.131Z,8.70
2022-09-14T05:08:41.902Z,9.10
2022-09-14T05:11:09.005Z,8.73
2022-09-14T05:13:35.822Z,8.68
2022-09-14T05:16:06.345Z,10.05
2022-09-14T05:18:33.175Z,9.25
2022-09-14T05:21:08.545Z,8.98
2022-09-14T05:23:35.413Z,8.85
2022-09-14T05:26:02.043Z,8.60
2022-09-14T05:28:28.632Z,8.65
2022-09-14T05:30:55.402Z,9.23
2022-09-14T05:33:22.145Z,8.60
2022-09-14T05:35:48.856Z,9.40
2022-09-14T05:38:15.515Z,8.25
2022-09-14T05:40:41.862Z,8.48
2022-09-14T05:43:08.417Z,8.95
2022-09-14T05:45:34.938Z,8.57
2022-09-14T05:48:04.654Z,8.48
2022-09-14T05:50:31.794Z,8.70
2022-09-14T05:52:58.078Z,8.50
2022-09-14T05:55:24.399Z,8.43
2022-09-14T05:57:51.123Z,8.43
2022-09-14T06:00:18.078Z,8.63
2022-09-14T06:02:51.717Z,9.00
2022-09-14T06:05:18.522Z,9.07
2022-09-14T06:07:45.003Z,10.15
2022-09-14T06:10:12.064Z,9.63
2022-09-14T06:12:38.885Z,10.30
2022-09-14T06:15:05.445Z,9.00
2022-09-14T06:17:31.853Z,8.77
2022-09-14T06:20:02.245Z,8.60
2022-09-14T06:22:31.325Z,8.15
2022-09-14T06:24:57.797Z,8.68
2022-09-14T06:27:24.146Z,8.38
2022-09-14T06:29:52.194Z,8.60
2022-09-14T06:32:19.104Z,8.82
2022-09-14T06:34:45.785Z,8.15
2022-09-14T06:37:12.474Z,8.15
2022-09-14T06:39:38.745Z,8.38
2022-09-14T06:42:05.273Z,8.55
2022-09-14T06:44:31.673Z,8.55
2022-09-14T06:46:57.979Z,8.32
2022-09-14T06:49:24.555Z,8.63
2022-09-14T06:51:51.124Z,9.38
2022-09-14T06:54:18.519Z,9.30
2022-09-14T06:56:45.538Z,9.93
2022-09-14T06:59:13.446Z,9.27
2022-09-14T07:01:39.773Z,10.20
2022-09-14T07:04:06.238Z,9.95
2022-09-14T07:06:33.795Z,10.68
2022-09-14T07:09:03.345Z,10.27
2022-09-14T07:11:29.781Z,10.93
2022-09-14T07:13:59.498Z,9.70
2022-09-14T07:16:26.237Z,9.35
2022-09-14T07:18:53.347Z,10.95
2022-09-14T07:21:21.150Z,10.00
2022-09-14T07:23:48.123Z,7.93
2022-09-14T07:26:14.425Z,7.75
2022-09-14T07:28:41.390Z,7.15
2022-09-14T07:31:19.089Z,7.05
2022-09-14T07:33:45.708Z,8.13
2022-09-14T07:36:12.718Z,7.03
2022-09-14T07:38:52.047Z,8.30
2022-09-14T07:41:20.546Z,8.20
2022-09-14T07:43:53.610Z,8.63
2022-09-14T07:46:21.152Z,7.80
2022-09-14T07:48:47.969Z,9.07
2022-09-14T07:51:14.475Z,9.57
2022-09-14T07:53:45.682Z,10.10
2022-09-14T07:56:13.510Z,10.05
2022-09-14T07:58:40.097Z,9.88
2022-09-14T08:01:08.601Z,11.55
2022-09-14T08:03:40.140Z,10.18
2022-09-14T08:06:10.835Z,10.60
2022-09-14T08:08:38.445Z,10.90
2022-09-14T08:11:11.043Z,12.23
2022-09-14T08:13:38.706Z,12.63
2022-09-14T08:16:06.110Z,12.70
2022-09-14T08:18:33.278Z,12.80
2022-09-14T08:21:06.730Z,12.32
2022-09-14T08:23:33.163Z,13.73
2022-09-14T08:26:03.782Z,12.95
2022-09-14T08:28:30.559Z,13.90
2022-09-14T08:31:01.338Z,15.15
2022-09-14T08:33:28.029Z,14.90
2022-09-14T08:35:57.907Z,14.98
2022-09-14T08:38:24.682Z,14.45
2022-09-14T08:40:51.491Z,14.38
2022-09-14T08:43:18.574Z,14.60
2022-09-14T08:45:45.822Z,14.93
2022-09-14T08:48:20.230Z,14.18
2022-09-14T08:50:46.609Z,14.73
2022-09-14T08:53:13.002Z,14.55
2022-09-14T08:55:43.694Z,15.70
2022-09-14T08:58:09.971Z,15.50
2022-09-14T09:00:39.327Z,13.25
2022-09-14T09:03:14.759Z,13.48
2022-09-14T09:05:56.761Z,12.43
2022-09-14T09:08:23.060Z,12.30
2022-09-14T09:10:51.684Z,12.00
2022-09-14T09:13:20.336Z,11.57
2022-09-14T09:15:51.070Z,10.50
2022-09-14T09:18:35.528Z,9.95
2022-09-14T09:21:14.938Z,9.93
2022-09-14T09:23:41.883Z,9.77
2022-09-14T09:26:11.076Z,9.38
2022-09-14T09:28:43.625Z,10.20
2022-09-14T09:31:14.597Z,10.60
2022-09-14T09:33:41.608Z,10.88
2022-09-14T09:36:08.460Z,10.88
2022-09-14T09:38:35.131Z,10.93
2022-09-14T09:41:07.609Z,10.75
2022-09-14T09:43:48.923Z,11.07
2022-09-14T09:46:16.048Z,10.98
2022-09-14T09:48:43.911Z,11.90
2022-09-14T09:51:30.544Z,10.75
2022-09-14T09:54:08.964Z,11.27
2022-09-14T09:56:37.789Z,10.48
2022-09-14T09:59:20.817Z,11.52
2022-09-14T10:01:47.328Z,9.85
2022-09-14T10:04:21.681Z,7.88
2022-09-14T10:06:49.136Z,7.35
2022-09-14T10:09:17.136Z,9.68
2022-09-14T10:11:45.336Z,11.18
2022-09-14T10:14:26.645Z,11.73
2022-09-14T10:16:56.014Z,13.73
2022-09-14T10:19:24.701Z,13.60
2022-09-14T10:22:04.451Z,13.27
2022-09-14T10:24:32.052Z,12.82
2022-09-14T10:26:58.513Z,12.88
2022-09-14T10:29:28.808Z,12.18
2022-09-14T10:31:58.936Z,8.13
2022-09-14T10:34:25.319Z,7.88
2022-09-14T10:36:59.217Z,7.93
2022-09-14T10:39:26.538Z,7.30
2022-09-14T10:41:55.605Z,6.80
2022-09-14T10:44:22.674Z,8.32
2022-09-14T10:46:55.025Z,7.22
2022-09-14T10:49:41.086Z,7.63
2022-09-14T10:52:19.378Z,7.15
2022-09-14T10:55:03.168Z,7.35
2022-09-14T10:57:35.262Z,6.80
2022-09-14T11:00:12.849Z,6.60
2022-09-14T11:02:58.352Z,6.10
2022-09-14T11:05:24.812Z,8.05
2022-09-14T11:07:55.473Z,8.18
2022-09-14T11:10:24.937Z,8.35
2022-09-14T11:13:00.960Z,8.55
2022-09-14T11:15:41.205Z,8.65
2022-09-14T11:18:10.475Z,9.40
2022-09-14T11:20:42.857Z,10.27
2022-09-14T11:23:34.197Z,10.13
2022-09-14T11:26:06.950Z,9.43
2022-09-14T11:28:38.200Z,11.63
2022-09-14T11:31:12.380Z,10.38
2022-09-14T11:33:57.892Z,11.02
2022-09-14T11:36:30.209Z,9.70
2022-09-14T11:39:06.584Z,9.95
2022-09-14T11:41:42.175Z,9.55
2022-09-14T11:44:17.626Z,8.55
2022-09-14T11:47:08.517Z,9.00
2022-09-14T11:49:46.665Z,8.10
2022-09-14T11:52:15.896Z,8.55
2022-09-14T11:54:46.590Z,8.45
2022-09-14T11:57:16.753Z,8.50
2022-09-14T11:59:48.563Z,8.32
2022-09-14T12:02:24.511Z,7.90
2022-09-14T12:05:16.884Z,6.35
2022-09-14T12:07:45.737Z,6.63
2022-09-14T12:10:18.012Z,6.97
2022-09-14T12:12:55.092Z,6.43
2022-09-14T12:15:27.445Z,6.57
2022-09-14T12:18:14.059Z,5.60
2022-09-14T12:20:43.158Z,5.85
2022-09-14T12:23:15.587Z,6.18
2022-09-14T12:25:53.712Z,6.10
2022-09-14T12:28:28.320Z,6.28
2022-09-14T12:30:54.690Z,6.43
2022-09-14T12:33:33.458Z,5.43
2022-09-14T12:36:00.511Z,3.80
2022-09-14T12:38:29.933Z,2.53
2022-09-14T12:40:56.923Z,2.50
2022-09-14T12:43:43.589Z,1.60
2022-09-14T12:46:12.962Z,1.50
2022-09-14T12:48:48.569Z,1.67
2022-09-14T12:51:17.902Z,1.92
2022-09-14T12:53:44.435Z,2.00
2022-09-14T12:56:20.575Z,2.30
2022-09-14T12:58:56.014Z,2.63
2022-09-14T13:01:34.297Z,2.13
2022-09-14T13:04:02.301Z,3.10
2022-09-14T13:06:40.398Z,3.17
2022-09-14T13:09:11.941Z,3.15
2022-09-14T13:11:40.376Z,2.35
2022-09-14T13:14:07.198Z,2.95
2022-09-14T13:16:39.619Z,2.70
2022-09-14T13:19:10.159Z,2.55
2022-09-14T13:21:45.872Z,2.42
2022-09-14T13:24:19.500Z,2.45
2022-09-14T13:26:46.062Z,2.40
2022-09-14T13:29:14.384Z,1.70
2022-09-14T13:31:41.202Z,1.65
2022-09-14T13:34:07.750Z,1.60
2022-09-14T13:36:41.059Z,1.60
2022-09-14T13:39:13.256Z,1.55
2022-09-14T13:41:42.432Z,1.80
2022-09-14T13:44:09.014Z,1.80
2022-09-14T13:46:37.435Z,2.10
2022-09-14T13:49:05.951Z,2.33
2022-09-14T13:51:32.349Z,2.30
2022-09-14T13:54:15.645Z,2.78
2022-09-14T13:56:42.113Z,3.20
2022-09-14T13:59:08.627Z,3.30
2022-09-14T14:01:42.859Z,3.22
2022-09-14T14:04:27.532Z,3.97
2022-09-14T14:07:03.076Z,4.20
2022-09-14T14:09:42.534Z,4.22
2022-09-14T14:12:09.293Z,5.05
2022-09-14T14:14:36.059Z,5.50
2022-09-14T14:17:21.310Z,5.97
2022-09-14T14:19:48.485Z,5.90
2022-09-14T14:22:14.789Z,6.22
2022-09-14T14:27:40.601Z,6.30
2022-09-14T14:30:18.037Z,6.50
2022-09-14T14:32:49.316Z,7.57
2022-09-14T14:35:17.285Z,6.72
2022-09-14T14:37:43.699Z,6.78
2022-09-14T14:40:13.382Z,7.10
2022-09-14T14:42:40.301Z,7.65
2022-09-14T14:45:07.525Z,7.72
2022-09-14T14:47:33.825Z,6.90
2022-09-14T14:50:00.392Z,7.97
2022-09-14T14:52:26.856Z,9.75
2022-09-14T14:54:53.205Z,9.90
2022-09-14T14:57:19.559Z,8.63
2022-09-14T14:59:46.108Z,8.15
2022-09-14T15:02:12.453Z,7.85
2022-09-14T15:04:38.739Z,10.20
2022-09-14T15:07:05.085Z,7.50
2022-09-14T15:09:32.484Z,8.48
2022-09-14T15:11:58.895Z,7.22
2022-09-14T15:14:28.413Z,7.82
2022-09-14T15:17:00.444Z,7.70
2022-09-14T15:19:27.078Z,7.65
2022-09-14T15:21:57.279Z,9.80
2022-09-14T15:24:26.511Z,8.50
2022-09-14T15:26:54.216Z,9.25
2022-09-14T15:29:20.693Z,8.77
2022-09-14T15:31:47.285Z,9.38
2022-09-14T15:34:13.696Z,10.32
2022-09-14T15:36:40.070Z,10.23
2022-09-14T15:39:07.051Z,10.98
2022-09-14T15:41:33.514Z,11.02
2022-09-14T15:44:00.217Z,8.63
2022-09-14T15:46:26.592Z,8.73
2022-09-14T15:48:52.905Z,8.13
2022-09-14T15:51:19.770Z,7.70
2022-09-14T15:53:46.421Z,7.82
2022-09-14T15:56:13.804Z,7.18
2022-09-14T15:58:41.955Z,6.63
2022-09-14T16:01:12.382Z,7.50
2022-09-14T16:03:40.245Z,8.15
2022-09-14T16:06:06.988Z,7.85
2022-09-14T16:08:34.969Z,8.65
2022-09-14T16:11:02.013Z,8.30
2022-09-14T16:13:28.810Z,7.57
2022-09-14T16:16:15.467Z,7.22
2022-09-14T16:18:41.902Z,6.95
2022-09-14T16:21:12.101Z,7.72
2022-09-14T16:23:40.153Z,8.38
2022-09-14T16:26:11.149Z,8.10
2022-09-14T16:28:41.474Z,8.75
2022-09-14T16:31:09.399Z,9.80
2022-09-14T16:33:38.435Z,7.95
2022-09-14T16:36:06.847Z,8.35
2022-09-14T16:38:33.660Z,10.10
2022-09-14T16:41:00.957Z,10.18
2022-09-14T16:43:28.034Z,8.25
2022-09-14T16:46:05.221Z,8.23
2022-09-14T16:48:32.453Z,8.18
2022-09-14T16:50:58.944Z,9.13
2022-09-14T16:53:25.323Z,10.02
2022-09-14T16:55:51.685Z,9.90
2022-09-14T16:58:18.161Z,7.63
2022-09-14T17:00:44.534Z,4.70
2022-09-14T17:03:11.041Z,4.18
2022-09-14T17:05:37.414Z,4.18
2022-09-14T17:08:03.790Z,4.53
2022-09-14T17:10:32.878Z,3.88
2022-09-14T17:12:59.266Z,3.00
2022-09-14T17:15:25.552Z,2.83
2022-09-14T17:17:51.935Z,3.50
2022-09-14T17:20:18.401Z,3.80
2022-09-14T17:22:44.820Z,4.95
2022-09-14T17:25:16.219Z,4.70
2022-09-14T17:27:45.698Z,5.13
2022-09-14T17:30:12.411Z,5.15
2022-09-14T17:32:38.804Z,5.15
2022-09-14T17:35:05.392Z,5.10
2022-09-14T17:37:31.714Z,5.20
2022-09-14T17:39:58.107Z,5.35
2022-09-14T17:42:24.451Z,4.65
2022-09-14T17:44:50.769Z,3.67
2022-09-14T17:47:17.146Z,3.67
2022-09-14T17:49:43.509Z,4.28
2022-09-14T17:52:09.875Z,6.03
2022-09-14T17:54:38.742Z,6.63
2022-09-14T17:57:05.260Z,7.00
2022-09-14T17:59:31.591Z,6.85
2022-09-14T18:01:57.975Z,7.68
2022-09-14T18:04:24.397Z,7.60
2022-09-14T18:06:51.009Z,8.27
2022-09-14T18:09:19.137Z,8.15
2022-09-14T18:11:45.972Z,9.80
2022-09-14T18:14:12.971Z,8.68
2022-09-14T18:16:42.409Z,8.75
2022-09-14T18:19:08.887Z,9.35
2022-09-14T18:21:35.230Z,8.75
2022-09-14T18:24:01.741Z,8.75
2022-09-14T18:26:30.524Z,9.25
2022-09-14T18:28:58.577Z,9.55
2022-09-14T18:31:25.533Z,10.25
2022-09-14T18:33:53.289Z,11.00
2022-09-14T18:36:20.479Z,11.05
2022-09-14T18:38:48.628Z,11.57
2022-09-14T18:41:15.838Z,12.40
2022-09-14T18:43:43.123Z,11.73
2022-09-14T18:46:09.772Z,11.85
2022-09-14T18:48:36.172Z,11.85
2022-09-14T18:51:03.852Z,11.88
2022-09-14T18:53:34.383Z,10.80
2022-09-14T18:56:04.727Z,13.40
2022-09-14T18:58:34.726Z,15.45
2022-09-14T19:01:01.748Z,15.00
2022-09-14T19:03:28.117Z,14.05
2022-09-14T19:05:54.494Z,8.35
2022-09-14T19:08:21.329Z,5.78
2022-09-14T19:10:47.632Z,6.00
2022-09-14T19:13:14.000Z,6.05
2022-09-14T19:15:41.062Z,4.82
2022-09-14T19:18:08.355Z,2.70
2022-09-14T19:21:04.785Z,1.70
2022-09-14T19:23:25.113Z,1.48
2022-09-14T19:25:51.538Z,1.42
2022-09-14T19:28:17.846Z,1.73
2022-09-14T19:30:44.222Z,2.20
2022-09-14T19:33:10.540Z,1.90
2022-09-14T19:35:36.958Z,2.10
2022-09-14T19:38:03.249Z,1.70
2022-09-14T19:40:30.123Z,1.98
2022-09-14T19:42:56.523Z,1.55
2022-09-14T19:45:23.138Z,1.17
2022-09-14T19:47:49.540Z,1.20
2022-09-14T19:50:16.023Z,1.38
2022-09-14T19:52:42.354Z,0.80
2022-09-14T19:55:08.973Z,1.00
2022-09-14T19:57:40.255Z,1.00
2022-09-14T20:00:09.569Z,1.00
2022-09-14T20:02:36.119Z,0.90
2022-09-14T20:05:02.572Z,0.73
2022-09-14T20:07:29.165Z,1.20
2022-09-14T20:09:57.938Z,1.10
2022-09-14T20:12:24.280Z,1.10
2022-09-14T20:14:50.635Z,1.00
2022-09-14T20:17:16.974Z,1.17
2022-09-14T20:19:43.374Z,0.63
2022-09-14T20:22:12.605Z,0.40
2022-09-14T20:24:42.503Z,0.40
2022-09-14T20:27:08.932Z,0.50
2022-09-14T20:29:35.760Z,0.45
2022-09-14T20:32:02.739Z,0.70
2022-09-14T20:34:29.198Z,0.75
2022-09-14T20:36:55.860Z,1.00
2022-09-14T20:39:22.882Z,1.00
2022-09-14T20:41:49.586Z,1.45
2022-09-14T20:44:16.906Z,2.25
2022-09-14T20:46:44.034Z,1.77
2022-09-14T20:49:11.947Z,2.03
2022-09-14T20:51:38.655Z,2.35
2022-09-14T20:54:05.557Z,1.90
2022-09-14T20:56:33.188Z,2.22
2022-09-14T20:59:01.063Z,2.65
2022-09-14T21:01:29.451Z,2.63
2022-09-14T21:03:56.178Z,2.63
2022-09-14T21:06:24.169Z,1.90
2022-09-14T21:08:51.020Z,1.92
2022-09-14T21:11:21.898Z,2.10
2022-09-14T21:13:48.891Z,2.33
2022-09-14T21:16:19.454Z,2.03
2022-09-14T21:18:46.808Z,1.98
2022-09-14T21:21:19.178Z,2.30
2022-09-14T21:23:46.079Z,2.03
2022-09-14T21:26:12.750Z,2.00
2022-09-14T21:28:39.775Z,1.90
2022-09-14T21:31:07.519Z,1.90
2022-09-14T21:33:42.707Z,2.95
2022-09-14T21:36:10.427Z,4.00
2022-09-14T21:38:36.815Z,3.53
2022-09-14T21:41:05.058Z,4.30
2022-09-14T21:43:31.426Z,4.18
2022-09-14T21:45:58.269Z,4.00
2022-09-14T21:48:25.162Z,3.10
2022-09-14T21:51:00.379Z,2.00
2022-09-14T21:53:26.741Z,1.55
2022-09-14T21:55:53.094Z,2.10
2022-09-14T21:58:19.484Z,1.27
2022-09-14T22:00:45.828Z,1.40
2022-09-14T22:03:12.209Z,1.20
2022-09-14T22:05:38.660Z,1.27
2022-09-14T22:08:04.963Z,1.02
2022-09-14T22:10:34.102Z,1.30
2022-09-14T22:13:00.768Z,1.73
2022-09-14T22:15:32.009Z,2.08
2022-09-14T22:18:01.998Z,1.83
2022-09-14T22:20:28.629Z,1.92
2022-09-14T22:22:55.058Z,2.28
2022-09-14T22:25:24.960Z,1.88
2022-09-14T22:27:51.992Z,2.00
2022-09-14T22:30:18.942Z,1.90
2022-09-14T22:32:45.235Z,1.60
2022-09-14T22:35:11.559Z,1.73
2022-09-14T22:37:38.533Z,1.50
2022-09-14T22:40:05.578Z,1.52
2022-09-14T22:42:32.514Z,1.45
2022-09-14T22:44:58.857Z,1.45
2022-09-14T22:47:25.208Z,1.40
2022-09-14T22:49:52.615Z,1.90
2022-09-14T22:52:19.044Z,2.85
2022-09-14T22:54:45.363Z,2.80
2022-09-14T22:57:11.699Z,1.92
2022-09-14T22:59:38.935Z,2.10
2022-09-14T23:02:05.413Z,2.25
2022-09-14T23:04:31.866Z,2.40
2022-09-14T23:06:59.923Z,2.65
2022-09-14T23:09:26.475Z,2.00
2022-09-14T23:11:52.972Z,2.08
2022-09-14T23:14:19.274Z,2.75
2022-09-14T23:16:45.984Z,3.30
2022-09-14T23:19:14.541Z,3.42
2022-09-14T23:21:40.897Z,3.03
2022-09-14T23:24:07.355Z,3.65
2022-09-14T23:26:34.217Z,4.05
2022-09-14T23:29:01.786Z,4.03
2022-09-14T23:31:29.165Z,5.10
2022-09-14T23:33:56.595Z,4.95
2022-09-14T23:36:23.372Z,4.40
2022-09-14T23:38:50.093Z,4.32
2022-09-14T23:41:17.031Z,4.40
2022-09-14T23:43:43.610Z,5.32
2022-09-14T23:46:10.046Z,5.28
2022-09-14T23:48:36.382Z,4.05
2022-09-14T23:51:04.217Z,4.30
2022-09-14T23:53:30.631Z,3.55
2022-09-14T23:55:57.391Z,3.28
2022-09-14T23:58:24.153Z,3.50
